createdAt,value
2022-11-02T00:01:22.906Z,99522.38
2022-11-02T00:03:55.164Z,99517.25
2022-11-02T00:06:24.566Z,99510.84
2022-11-02T00:08:52.578Z,99504.50
2022-11-02T00:11:20.882Z,99502.59
2022-11-02T00:13:48.892Z,99505.13
2022-11-02T00:16:19.996Z,99503.69
2022-11-02T00:18:53.266Z,99506.69
2022-11-02T00:21:22.369Z,99515.72
2022-11-02T00:23:55.047Z,99509.66
2022-11-02T00:26:23.103Z,99508.25
2022-11-02T00:28:51.387Z,99516.22
2022-11-02T00:31:31.821Z,99517.53
2022-11-02T00:33:59.864Z,99515.88
2022-11-02T00:36:33.448Z,99505.75
2022-11-02T00:39:04.908Z,99501.34
2022-11-02T00:41:33.506Z,99516.72
2022-11-02T00:44:01.470Z,99518.50
2022-11-02T00:52:03.130Z,99503.53
2022-11-02T00:54:34.167Z,99514.75
2022-11-02T00:57:05.135Z,99519.63
2022-11-02T00:59:35.049Z,99513.81
2022-11-02T01:02:06.426Z,99514.28
2022-11-02T01:04:36.564Z,99518.34
2022-11-02T01:07:09.385Z,99520.50
2022-11-02T01:09:39.685Z,99524.56
2022-11-02T01:12:08.124Z,99517.66
2022-11-02T01:14:51.044Z,99509.09
2022-11-02T01:20:30.966Z,99513.38
2022-11-02T01:23:05.555Z,99515.78
2022-11-02T01:25:35.186Z,99508.06
2022-11-02T01:28:03.369Z,99515.44
2022-11-02T01:30:31.660Z,99504.72
2022-11-02T01:33:01.638Z,99497.81
2022-11-02T01:38:18.561Z,99501.50
2022-11-02T01:40:46.463Z,99510.56
2022-11-02T01:43:32.011Z,99516.53
2022-11-02T01:46:14.728Z,99507.13
2022-11-02T01:52:17.610Z,99513.44
2022-11-02T01:55:09.695Z,99507.38
2022-11-02T01:57:40.682Z,99505.94
2022-11-02T02:00:14.036Z,99500.94
2022-11-02T02:03:00.611Z,99504.75
2022-11-02T02:05:30.001Z,99493.22
2022-11-02T02:07:58.250Z,99498.09
2022-11-02T02:10:26.117Z,99498.34
2022-11-02T02:12:56.437Z,99495.25
2022-11-02T02:15:36.145Z,99499.91
2022-11-02T02:23:46.527Z,99516.72
2022-11-02T02:29:21.577Z,99504.72
2022-11-02T02:32:02.399Z,99513.28
2022-11-02T02:34:52.107Z,99523.66
2022-11-02T02:37:42.438Z,99511.75
2022-11-02T02:40:46.631Z,99516.59
2022-11-02T02:46:53.618Z,99520.88
2022-11-02T02:49:36.353Z,99522.56
2022-11-02T02:52:04.565Z,99522.78
2022-11-02T02:54:41.399Z,99515.91
2022-11-02T02:57:17.621Z,99521.97
2022-11-02T02:59:50.691Z,99517.31
2022-11-02T03:02:27.826Z,99519.00
2022-11-02T03:07:54.642Z,99539.34
2022-11-02T03:17:20.027Z,99530.41
2022-11-02T03:29:15.389Z,99532.44
2022-11-02T03:32:08.020Z,99528.03
2022-11-02T03:34:56.219Z,99540.88
2022-11-02T03:43:26.704Z,99551.22
2022-11-02T03:45:59.904Z,99544.06
2022-11-02T03:48:50.474Z,99541.34
2022-11-02T03:51:25.612Z,99546.19
2022-11-02T03:54:11.295Z,99540.97
2022-11-02T03:56:48.041Z,99542.63
2022-11-02T03:59:18.894Z,99539.31
2022-11-02T04:01:51.320Z,99553.81
2022-11-02T04:04:19.769Z,99550.72
2022-11-02T04:06:51.889Z,99556.19
2022-11-02T04:09:24.328Z,99560.81
2022-11-02T04:12:13.668Z,99563.31
2022-11-02T04:18:06.947Z,99564.16
2022-11-02T04:20:38.299Z,99553.22
2022-11-02T04:26:27.695Z,99563.34
2022-11-02T04:29:15.357Z,99581.41
2022-11-02T04:31:45.928Z,99562.75
2022-11-02T04:34:13.942Z,99570.13
2022-11-02T04:36:41.856Z,99560.63
2022-11-02T04:39:12.801Z,99567.72
2022-11-02T04:41:49.613Z,99563.94
2022-11-02T04:55:59.880Z,99565.13
2022-11-02T05:08:50.211Z,99563.72
2022-11-02T05:11:19.755Z,99559.56
2022-11-02T05:13:52.330Z,99574.19
2022-11-02T05:16:20.215Z,99564.66
2022-11-02T05:18:53.896Z,99563.81
2022-11-02T05:21:33.040Z,99567.16
2022-11-02T05:24:03.388Z,99558.75
2022-11-02T05:26:33.419Z,99564.78
2022-11-02T05:29:01.082Z,99573.25
2022-11-02T05:31:39.100Z,99585.00
2022-11-02T05:43:38.093Z,99596.66
2022-11-02T05:46:15.261Z,99588.34
2022-11-02T05:54:24.348Z,99602.47
2022-11-02T05:56:52.342Z,99604.84
2022-11-02T05:59:20.815Z,99608.41
2022-11-02T06:02:02.180Z,99613.66
2022-11-02T06:04:33.368Z,99614.13
2022-11-02T06:30:25.871Z,99630.44
2022-11-02T06:32:55.960Z,99630.78
2022-11-02T06:35:25.809Z,99638.78
2022-11-02T06:37:53.706Z,99641.25
2022-11-02T06:40:25.731Z,99637.22
2022-11-02T06:43:16.118Z,99638.66
2022-11-02T06:45:49.190Z,99637.38
2022-11-02T06:48:19.800Z,99648.91
2022-11-02T06:50:48.049Z,99642.38
2022-11-02T06:53:25.135Z,99644.84
2022-11-02T06:58:54.747Z,99660.13
2022-11-02T07:01:27.991Z,99654.41
2022-11-02T07:03:57.065Z,99655.03
2022-11-02T07:06:33.322Z,99667.78
2022-11-02T07:09:03.201Z,99663.38
2022-11-02T07:11:44.518Z,99672.78
2022-11-02T07:14:14.698Z,99674.69
2022-11-02T07:16:45.669Z,99673.16
2022-11-02T07:19:13.101Z,99677.31
2022-11-02T07:21:42.466Z,99681.72
2022-11-02T07:24:12.656Z,99685.88
2022-11-02T07:26:42.536Z,99676.13
2022-11-02T07:29:23.196Z,99683.63
2022-11-02T07:35:46.851Z,99679.13
2022-11-02T07:38:14.584Z,99671.50
2022-11-02T07:40:41.985Z,99676.53
2022-11-02T07:43:14.321Z,99668.53
2022-11-02T07:45:44.547Z,99666.03
2022-11-02T07:48:12.094Z,99669.59
2022-11-02T07:50:40.265Z,99665.81
2022-11-02T07:53:12.568Z,99665.09
2022-11-02T07:58:51.891Z,99673.66
2022-11-02T08:01:19.823Z,99668.66
2022-11-02T08:03:48.455Z,99672.81
2022-11-02T08:06:29.223Z,99669.16
2022-11-02T08:08:59.766Z,99666.41
2022-11-02T08:11:27.520Z,99662.34
2022-11-02T08:13:55.163Z,99666.28
2022-11-02T08:16:25.565Z,99666.63
2022-11-02T08:18:53.061Z,99665.09
2022-11-02T08:21:20.528Z,99664.50
2022-11-02T08:23:48.048Z,99663.81
2022-11-02T08:26:18.386Z,99668.78
2022-11-02T08:28:45.817Z,99661.88
2022-11-02T08:31:17.399Z,99659.13
2022-11-02T08:33:48.074Z,99665.81
2022-11-02T08:36:18.028Z,99671.03
2022-11-02T08:38:46.113Z,99657.13
2022-11-02T08:41:20.990Z,99654.13
2022-11-02T08:43:50.760Z,99660.22
2022-11-02T08:46:27.817Z,99650.09
2022-11-02T08:48:57.157Z,99649.84
2022-11-02T08:51:26.580Z,99645.81
2022-11-02T08:53:55.874Z,99646.28
2022-11-02T11:24:46.981Z,99589.63
2022-11-02T11:39:23.294Z,99593.88
2022-11-02T11:50:51.389Z,99578.97
2022-11-02T11:53:28.868Z,99576.00
2022-11-02T11:56:04.665Z,99575.94
2022-11-02T12:07:22.349Z,99573.38
2022-11-02T12:10:10.089Z,99577.53
2022-11-02T12:13:00.816Z,99573.69
2022-11-02T12:15:55.794Z,99558.03
2022-11-02T12:18:28.626Z,99567.75
2022-11-02T12:21:42.507Z,99569.16
2022-11-02T12:24:19.284Z,99566.72
2022-11-02T12:27:10.376Z,99552.16
2022-11-02T12:33:26.900Z,99551.41
2022-11-02T12:53:45.811Z,99543.44
2022-11-02T13:03:05.168Z,99530.81
2022-11-02T13:06:00.363Z,99529.50
2022-11-02T13:08:57.876Z,99533.38
2022-11-02T13:12:06.565Z,99530.94
2022-11-02T13:14:45.445Z,99536.50
2022-11-02T13:17:45.774Z,99543.47
2022-11-02T13:23:47.966Z,99538.25
2022-11-02T13:26:43.549Z,99536.41
2022-11-02T13:29:52.739Z,99536.41
2022-11-02T13:33:00.619Z,99532.56
2022-11-02T13:35:39.170Z,99534.50
2022-11-02T13:38:41.046Z,99526.44
2022-11-02T13:41:48.813Z,99537.50
2022-11-02T13:44:28.068Z,99537.25
2022-11-02T13:47:20.137Z,99535.31
2022-11-02T13:49:55.165Z,99529.75
2022-11-02T13:52:35.728Z,99539.69
2022-11-02T13:55:06.037Z,99532.50
2022-11-02T13:57:49.773Z,99541.63
2022-11-02T14:03:17.538Z,99544.38
2022-11-02T14:06:13.781Z,99536.94
2022-11-02T14:08:56.830Z,99532.56
2022-11-02T14:11:42.810Z,99541.06
2022-11-02T14:14:35.981Z,99534.44
2022-11-02T14:17:16.174Z,99531.69
2022-11-02T14:19:51.573Z,99549.88
2022-11-02T14:22:20.470Z,99540.50
2022-11-02T14:24:49.495Z,99546.06
2022-11-02T14:27:19.215Z,99536.97
2022-11-02T14:29:46.882Z,99546.34
2022-11-02T14:32:20.671Z,99532.81
2022-11-02T14:35:18.505Z,99542.44
2022-11-02T14:38:38.103Z,99538.25
2022-11-02T14:41:27.276Z,99539.03
2022-11-02T14:44:43.166Z,99553.56
2022-11-02T14:47:16.013Z,99550.72
2022-11-02T14:49:57.867Z,99552.34
2022-11-02T14:52:54.989Z,99552.81
2022-11-02T14:55:40.591Z,99556.09
2022-11-02T14:58:31.924Z,99560.72
2022-11-02T15:01:04.183Z,99557.63
2022-11-02T15:03:42.391Z,99556.50
2022-11-02T15:06:25.636Z,99569.16
2022-11-02T15:09:05.109Z,99569.09
2022-11-02T15:12:00.866Z,99575.34
2022-11-02T15:17:13.930Z,99583.88
2022-11-02T15:19:54.037Z,99581.06
2022-11-02T15:28:33.501Z,99588.97
2022-11-02T15:31:13.680Z,99584.81
2022-11-02T15:33:59.876Z,99592.50
2022-11-02T15:36:40.662Z,99587.50
2022-11-02T15:39:11.437Z,99594.94
2022-11-02T15:41:57.444Z,99590.75
2022-11-02T15:44:52.081Z,99598.44
2022-11-02T15:47:36.099Z,99602.56
2022-11-02T15:50:26.424Z,99619.81
2022-11-02T15:53:33.616Z,99613.50
2022-11-02T15:56:13.204Z,99611.22
2022-11-02T15:59:10.599Z,99615.06
2022-11-02T16:01:42.019Z,99608.66
2022-11-02T16:04:21.196Z,99617.16
2022-11-02T16:06:50.244Z,99622.91
2022-11-02T16:09:35.442Z,99622.09
2022-11-02T16:12:17.735Z,99617.06
2022-11-02T16:14:58.891Z,99623.06
2022-11-02T16:17:31.074Z,99622.25
2022-11-02T16:20:21.854Z,99633.00
2022-11-02T16:22:51.324Z,99632.16
2022-11-02T16:25:36.775Z,99635.91
2022-11-02T16:28:25.482Z,99638.31
2022-11-02T16:31:20.931Z,99639.66
2022-11-02T16:33:58.077Z,99646.13
2022-11-02T16:36:29.132Z,99648.56
2022-11-02T16:39:21.208Z,99650.75
2022-11-02T16:41:57.581Z,99652.31
2022-11-02T16:44:32.025Z,99653.13
2022-11-02T16:47:16.936Z,99655.31
2022-11-02T16:50:02.981Z,99659.13
2022-11-02T16:52:38.161Z,99662.38
2022-11-02T16:55:46.691Z,99659.03
2022-11-02T16:58:23.107Z,99661.72
2022-11-02T17:03:53.776Z,99681.66
2022-11-02T17:06:22.195Z,99669.50
2022-11-02T17:08:56.589Z,99671.66
2022-11-02T17:11:24.230Z,99675.47
2022-11-02T17:14:01.027Z,99671.31
2022-11-02T17:16:34.546Z,99672.41
2022-11-02T17:19:04.838Z,99680.91
2022-11-02T17:21:35.464Z,99673.75
2022-11-02T17:24:31.800Z,99692.44
2022-11-02T17:27:28.550Z,99701.41
2022-11-02T17:29:58.322Z,99692.63
2022-11-02T17:32:26.529Z,99701.09
2022-11-02T17:34:58.085Z,99700.75
2022-11-02T17:37:41.007Z,99704.00
2022-11-02T17:40:12.762Z,99696.00
2022-11-02T17:42:58.650Z,99700.06
2022-11-02T17:45:39.219Z,99706.13
2022-11-02T17:48:10.952Z,99710.69
2022-11-02T17:50:43.850Z,99702.38
2022-11-02T17:53:15.755Z,99695.69
2022-11-02T17:55:45.364Z,99700.59
2022-11-02T17:58:13.902Z,99691.19
2022-11-02T18:00:42.086Z,99690.09
2022-11-02T18:03:20.336Z,99688.19
2022-11-02T18:05:52.521Z,99680.19
2022-11-02T18:08:21.855Z,99690.09
2022-11-02T18:10:56.155Z,99682.59
2022-11-02T18:13:25.057Z,99681.78
2022-11-02T18:15:52.505Z,99688.81
2022-11-02T18:18:20.042Z,99686.06
2022-11-02T18:20:47.437Z,99682.75
2022-11-02T18:23:22.236Z,99694.53
2022-11-02T18:25:51.806Z,99682.38
2022-11-02T18:28:22.592Z,99689.88
2022-11-02T18:30:50.063Z,99684.66
2022-11-02T18:33:17.468Z,99673.34
2022-11-02T18:35:45.411Z,99664.03
2022-11-02T18:38:12.898Z,99666.16
2022-11-02T18:40:40.420Z,99665.31
2022-11-02T18:43:08.405Z,99649.94
2022-11-02T18:45:36.091Z,99661.75
2022-11-02T18:48:03.832Z,99648.53
2022-11-02T18:50:31.561Z,99644.13
2022-11-02T18:52:59.358Z,99640.19
2022-11-02T18:55:27.103Z,99647.59
2022-11-02T18:57:56.449Z,99655.81
2022-11-02T19:00:24.190Z,99668.69
2022-11-02T19:02:51.604Z,99667.84
2022-11-02T19:05:37.848Z,99682.66
2022-11-02T19:08:24.165Z,99683.47
2022-11-02T19:10:52.072Z,99679.06
2022-11-02T19:13:19.589Z,99672.66
2022-11-02T19:15:46.915Z,99671.81
2022-11-02T19:18:14.270Z,99675.38
2022-11-02T19:20:41.740Z,99685.75
2022-11-02T19:23:10.196Z,99679.47
2022-11-02T19:25:37.882Z,99687.56
2022-11-02T19:28:05.643Z,99685.91
2022-11-02T19:30:33.163Z,99687.22
2022-11-02T19:33:00.773Z,99694.25
2022-11-02T19:35:28.180Z,99689.84
2022-11-02T19:37:58.528Z,99701.28
2022-11-02T19:40:26.164Z,99710.59
2022-11-02T19:42:53.681Z,99705.59
2022-11-02T19:45:21.191Z,99710.25
2022-11-02T19:47:50.210Z,99722.84
2022-11-02T19:50:20.619Z,99710.47
2022-11-02T19:52:51.818Z,99711.78
2022-11-02T19:55:22.794Z,99716.44
2022-11-02T19:57:50.307Z,99723.59
2022-11-02T20:00:18.054Z,99721.31
2022-11-02T20:02:45.658Z,99720.72
2022-11-02T20:05:14.691Z,99716.31
2022-11-02T20:07:42.155Z,99727.50
2022-11-02T20:10:10.095Z,99714.28
2022-11-02T20:12:38.619Z,99717.50
2022-11-02T20:15:10.918Z,99727.63
2022-11-02T20:17:58.430Z,99719.91
2022-11-02T20:20:25.986Z,99714.03
2022-11-02T20:22:53.476Z,99718.31
2022-11-02T20:25:20.968Z,99720.47
2022-11-02T20:27:50.863Z,99723.69
2022-11-02T20:30:19.502Z,99721.19
2022-11-02T20:32:46.948Z,99728.44
2022-11-02T20:35:22.242Z,99731.66
2022-11-02T20:37:52.626Z,99735.09
2022-11-02T20:40:20.036Z,99733.91
2022-11-02T20:42:50.514Z,99733.06
2022-11-02T20:45:18.967Z,99733.31
2022-11-02T20:47:47.138Z,99734.63
2022-11-02T20:50:17.511Z,99734.03
2022-11-02T20:52:46.905Z,99742.69
2022-11-02T20:55:14.410Z,99751.38
2022-11-02T20:57:43.010Z,99744.97
2022-11-02T21:00:11.685Z,99748.16
2022-11-02T21:02:41.713Z,99739.78
2022-11-02T21:05:09.770Z,99736.94
2022-11-02T21:07:37.397Z,99734.06
2022-11-02T21:10:06.055Z,99730.97
2022-11-02T21:12:52.843Z,99725.72
2022-11-02T21:15:20.366Z,99717.13
2022-11-02T21:17:47.849Z,99720.91
2022-11-02T21:20:35.128Z,99727.06
2022-11-02T21:23:05.823Z,99729.44
2022-11-02T21:25:33.843Z,99727.19
2022-11-02T21:28:03.999Z,99728.72
2022-11-02T21:30:34.637Z,99721.78
2022-11-02T21:33:02.188Z,99723.31
2022-11-02T21:35:29.592Z,99712.63
2022-11-02T21:38:00.224Z,99717.13
2022-11-02T21:40:31.151Z,99739.00
2022-11-02T21:42:58.724Z,99741.38
2022-11-02T21:45:26.536Z,99727.69
2022-11-02T21:47:54.103Z,99729.81
2022-11-02T21:50:21.665Z,99732.53
2022-11-02T21:52:59.007Z,99733.22
2022-11-02T21:55:26.456Z,99740.38
2022-11-02T21:57:53.934Z,99737.88
2022-11-02T22:00:21.379Z,99731.59
2022-11-02T22:02:51.076Z,99737.88
2022-11-02T22:05:38.484Z,99736.22
2022-11-02T22:08:25.057Z,99732.63
2022-11-02T22:10:58.185Z,99737.28
2022-11-02T22:13:34.769Z,99738.31
2022-11-02T22:16:25.346Z,99736.06
2022-11-02T22:19:01.701Z,99724.66
2022-11-02T22:21:36.473Z,99723.59
2022-11-02T22:24:04.791Z,99722.53
2022-11-02T22:26:35.369Z,99722.53
2022-11-02T22:29:03.599Z,99728.84
2022-11-02T22:31:34.619Z,99738.09
2022-11-02T22:34:04.684Z,99730.97
2022-11-02T22:36:37.230Z,99730.75
2022-11-02T22:39:08.165Z,99739.31
2022-11-02T22:41:43.849Z,99738.69
2022-11-02T22:44:17.198Z,99724.44
2022-11-02T22:46:47.840Z,99726.94
2022-11-02T22:49:17.736Z,99729.69
2022-11-02T22:51:48.899Z,99733.84
2022-11-02T22:54:19.534Z,99733.47
2022-11-02T22:56:51.436Z,99742.06
2022-11-02T22:59:19.386Z,99743.25
2022-11-02T23:01:46.914Z,99736.94
2022-11-02T23:04:14.543Z,99740.06
2022-11-02T23:06:42.060Z,99739.47
2022-11-02T23:09:12.434Z,99740.91
2022-11-02T23:11:39.879Z,99749.94
2022-11-02T23:14:14.204Z,99746.38
2022-11-02T23:16:47.208Z,99750.78
2022-11-02T23:19:30.989Z,99740.06
2022-11-02T23:22:23.176Z,99756.25
2022-11-02T23:25:12.492Z,99744.56
2022-11-02T23:28:13.526Z,99751.09
2022-11-02T23:31:00.389Z,99748.00
2022-11-02T23:33:33.996Z,99748.22
2022-11-02T23:36:11.275Z,99767.50
2022-11-02T23:39:08.051Z,99767.56
2022-11-02T23:41:38.992Z,99754.63
2022-11-02T23:44:12.831Z,99767.44
2022-11-02T23:46:46.690Z,99762.81
2022-11-02T23:49:17.799Z,99763.63
2022-11-02T23:52:04.033Z,99758.16
2022-11-02T23:54:50.159Z,99763.63
2022-11-02T23:57:18.757Z,99764.09
2022-11-02T23:59:46.248Z,99753.84
